createdAt,value
2019-04-07T00:00:03.953Z,928.9
2019-04-07T00:00:18.346Z,928.9
2019-04-07T00:00:32.549Z,928.92
2019-04-07T00:00:47.636Z,928.89
2019-04-07T00:01:01.328Z,928.87
2019-04-07T00:01:15.802Z,928.9
2019-04-07T00:01:30.577Z,928.88
2019-04-07T00:01:45.027Z,928.91
2019-04-07T00:01:58.492Z,928.91
2019-04-07T00:02:11.917Z,928.95
2019-04-07T00:02:25.691Z,928.91
2019-04-07T00:02:39.650Z,928.91
2019-04-07T00:02:53.431Z,928.91
2019-04-07T00:03:08.054Z,928.92
2019-04-07T00:03:22.986Z,928.93
2019-04-07T00:03:37.324Z,928.9
2019-04-07T00:03:50.680Z,928.91
2019-04-07T00:04:04.310Z,928.92
2019-04-07T00:04:18.023Z,928.93
2019-04-07T00:04:32.009Z,928.96
2019-04-07T00:04:45.616Z,928.93
2019-04-07T00:05:14.598Z,928.97
2019-04-07T00:05:28.857Z,928.97
2019-04-07T00:05:42.599Z,929
2019-04-07T00:05:56.328Z,928.99
2019-04-07T00:06:09.757Z,928.97
2019-04-07T00:06:24.189Z,928.96
2019-04-07T00:06:38.464Z,928.96
2019-04-07T00:06:52.446Z,928.99
2019-04-07T00:07:06.864Z,928.98
2019-04-07T00:07:20.838Z,929.02
2019-04-07T00:07:34.632Z,929.03
2019-04-07T00:07:49.518Z,929.02
2019-04-07T00:08:03.195Z,929.02
2019-04-07T00:08:17.986Z,929.01
2019-04-07T00:08:32.921Z,929.04
2019-04-07T00:08:48.204Z,929.04
2019-04-07T00:09:01.733Z,929.02
2019-04-07T00:09:15.366Z,929.04
2019-04-07T00:09:29.945Z,929.06
2019-04-07T00:09:44.765Z,929.05
2019-04-07T00:09:58.322Z,929.03
2019-04-07T00:10:12.775Z,929.06
2019-04-07T00:10:26.231Z,929.07
2019-04-07T00:10:40.172Z,929.01
2019-04-07T00:10:54.746Z,929.04
2019-04-07T00:11:09.469Z,929.03
2019-04-07T00:11:22.981Z,929.04
2019-04-07T00:11:36.851Z,929.08
2019-04-07T00:11:49.740Z,929.03
2019-04-07T00:12:03.663Z,929.06
2019-04-07T00:12:18.840Z,929.06
2019-04-07T00:12:33.335Z,929.07
2019-04-07T00:12:47.639Z,929.08
2019-04-07T00:13:01.447Z,929.08
2019-04-07T00:13:14.755Z,929.09
2019-04-07T00:13:28.402Z,929.08
2019-04-07T00:13:41.464Z,929.09
2019-04-07T00:13:55.852Z,929.12
2019-04-07T00:14:09.649Z,929.1
2019-04-07T00:14:22.661Z,929.1
2019-04-07T00:14:37.137Z,929.08
2019-04-07T00:14:51.480Z,929.06
2019-04-07T00:15:05.964Z,929.09
2019-04-07T00:15:19.658Z,929.08
2019-04-07T00:15:33.315Z,929.12
2019-04-07T00:15:47.357Z,929.09
2019-04-07T00:16:00.342Z,929.05
2019-04-07T00:16:14.590Z,929.08
2019-04-07T00:16:29.614Z,929.09
2019-04-07T00:16:43.818Z,929.08
2019-04-07T00:16:58.013Z,929.11
2019-04-07T00:17:12.125Z,929.07
2019-04-07T00:17:25.197Z,929.1
2019-04-07T00:17:39.805Z,929.08
2019-04-07T00:17:54.357Z,929.09
2019-04-07T00:18:07.807Z,929.06
2019-04-07T00:18:21.669Z,929.11
2019-04-07T00:18:35.900Z,929.1
2019-04-07T00:18:49.553Z,929.11
2019-04-07T00:19:02.686Z,929.12
2019-04-07T00:19:17.225Z,929.1
2019-04-07T00:19:32.268Z,929.09
2019-04-07T00:19:46.036Z,929.1
2019-04-07T00:19:59.063Z,929.09
2019-04-07T00:20:13.804Z,929.1
2019-04-07T00:20:27.815Z,929.11
2019-04-07T00:20:42.073Z,929.11
2019-04-07T00:20:56.571Z,929.09
2019-04-07T00:21:11.280Z,929.1
2019-04-07T00:21:25.216Z,929.12
2019-04-07T00:21:38.451Z,929.14
2019-04-07T00:21:52.019Z,929.12
2019-04-07T00:22:06.306Z,929.14
2019-04-07T00:22:21.007Z,929.12
2019-04-07T00:22:35.162Z,929.14
2019-04-07T00:22:48.785Z,929.09
2019-04-07T00:23:02.431Z,929.1
2019-04-07T00:23:16.248Z,929.13
2019-04-07T00:23:29.728Z,929.16
2019-04-07T00:23:43.060Z,929.12
2019-04-07T00:23:57.724Z,929.16
2019-04-07T00:24:13.614Z,929.2
2019-04-07T00:24:26.810Z,929.15
2019-04-07T00:24:40.557Z,929.18
2019-04-07T00:24:53.821Z,929.16
2019-04-07T00:25:06.930Z,929.15
2019-04-07T00:25:20.885Z,929.15
2019-04-07T00:25:34.048Z,929.18
2019-04-07T00:25:49.025Z,929.18
2019-04-07T00:26:03.243Z,929.17
2019-04-07T00:26:16.861Z,929.19
2019-04-07T00:26:31.151Z,929.18
2019-04-07T00:26:44.755Z,929.15
2019-04-07T00:26:58.885Z,929.15
2019-04-07T00:27:13.087Z,929.17
2019-04-07T00:27:26.985Z,929.15
2019-04-07T00:27:41.533Z,929.15
2019-04-07T00:27:54.633Z,929.17
2019-04-07T00:28:08.530Z,929.16
2019-04-07T00:28:22.546Z,929.13
2019-04-07T00:28:35.530Z,929.14
2019-04-07T00:28:49.839Z,929.14
2019-04-07T00:29:04.794Z,929.15
2019-04-07T00:29:18.512Z,929.14
2019-04-07T00:29:31.772Z,929.1
2019-04-07T00:29:45.239Z,929.12
2019-04-07T00:29:59.883Z,929.13
2019-04-07T00:30:13.712Z,929.08
2019-04-07T00:30:27.001Z,929.13
2019-04-07T00:30:41.029Z,929.12
2019-04-07T00:30:54.071Z,929.12
2019-04-07T00:31:08.425Z,929.1
2019-04-07T00:31:22.815Z,929.1
2019-04-07T00:31:37.362Z,929.07
2019-04-07T00:31:52.321Z,929.06
2019-04-07T00:32:04.846Z,929.07
2019-04-07T00:32:18.585Z,929.05
2019-04-07T00:32:32.768Z,929.06
2019-04-07T00:32:46.721Z,929.05
2019-04-07T00:33:00.807Z,929.06
2019-04-07T00:33:14.536Z,929.05
2019-04-07T00:33:28.427Z,929.03
2019-04-07T00:33:42.629Z,929.04
2019-04-07T00:33:55.742Z,929
2019-04-07T00:34:11.081Z,929.04
2019-04-07T00:34:24.922Z,929.02
2019-04-07T00:34:39.759Z,928.98
2019-04-07T00:34:53.020Z,929.04
2019-04-07T00:35:07.153Z,929
2019-04-07T00:35:39.045Z,929
2019-04-07T00:35:52.146Z,928.99
2019-04-07T00:36:07.350Z,929
2019-04-07T00:36:20.688Z,928.99
2019-04-07T00:36:34.125Z,928.99
2019-04-07T00:36:47.962Z,928.99
2019-04-07T00:37:01.344Z,929.02
2019-04-07T00:37:15.692Z,929.02
2019-04-07T00:37:29.563Z,929.02
2019-04-07T00:37:43.068Z,929
2019-04-07T00:37:57.229Z,928.97
2019-04-07T00:38:11.480Z,929.03
2019-04-07T00:38:25.064Z,929
2019-04-07T00:38:39.484Z,929.04
2019-04-07T00:38:53.105Z,929.02
2019-04-07T00:39:07.005Z,929
2019-04-07T00:39:22.391Z,928.97
2019-04-07T00:39:36.663Z,929.01
2019-04-07T00:39:49.990Z,929.01
2019-04-07T00:40:04.338Z,929.06
2019-04-07T00:40:17.513Z,929.04
2019-04-07T00:40:31.673Z,929.04
2019-04-07T00:40:45.249Z,929.06
2019-04-07T00:40:58.241Z,929.03
2019-04-07T00:41:12.109Z,929.03
2019-04-07T00:41:26.370Z,929.04
2019-04-07T00:41:41.758Z,929.05
2019-04-07T00:41:56.597Z,929.07
2019-04-07T00:42:10.509Z,929.07
2019-04-07T00:42:24.814Z,929.06
2019-04-07T00:42:38.095Z,929.03
2019-04-07T00:42:52.107Z,929.06
2019-04-07T00:43:05.679Z,929.07
2019-04-07T00:43:19.956Z,929.05
2019-04-07T00:43:34.055Z,929.09
2019-04-07T00:43:48.424Z,929.09
2019-04-07T00:44:02.669Z,929.09
2019-04-07T00:44:16.767Z,929.05
2019-04-07T00:44:31.177Z,929.07
2019-04-07T00:44:45.473Z,929.06
2019-04-07T00:44:58.679Z,929.08
2019-04-07T00:45:12.762Z,929.1
2019-04-07T00:45:26.461Z,929.07
2019-04-07T00:45:39.502Z,929.05
2019-04-07T00:45:53.577Z,929.04
2019-04-07T00:46:07.701Z,929.1
2019-04-07T00:46:21.212Z,929.08
2019-04-07T00:46:35.566Z,929.08
2019-04-07T00:46:51.038Z,929.06
2019-04-07T00:47:05.252Z,929.07
2019-04-07T00:47:18.554Z,929.08
2019-04-07T00:47:32.593Z,929.1
2019-04-07T00:47:46.152Z,929.1
2019-04-07T00:48:00.472Z,929.12
2019-04-07T00:48:14.663Z,929.09
2019-04-07T00:48:28.715Z,929.15
2019-04-07T00:48:44.067Z,929.09
2019-04-07T00:48:59.406Z,929.1
2019-04-07T00:49:14.867Z,929.08
2019-04-07T00:49:29.688Z,929.08
2019-04-07T00:49:43.486Z,929.08
2019-04-07T00:49:57.598Z,929.08
2019-04-07T00:50:11.953Z,929.06
2019-04-07T00:50:26.066Z,929.08
2019-04-07T00:50:40.558Z,929.09
2019-04-07T00:50:54.895Z,929.09
2019-04-07T00:51:09.160Z,929.08
2019-04-07T00:51:23.240Z,929.1
2019-04-07T00:51:37.525Z,929.07
2019-04-07T00:51:52.934Z,929.08
2019-04-07T00:52:07.241Z,929.07
2019-04-07T00:52:20.608Z,929.08
2019-04-07T00:52:34.964Z,929.07
2019-04-07T00:52:48.024Z,929.06
2019-04-07T00:53:02.287Z,929.07
2019-04-07T00:53:15.901Z,929.07
2019-04-07T00:53:30.048Z,929.07
2019-04-07T00:53:44.177Z,929.07
2019-04-07T00:53:58.324Z,929.07
2019-04-07T00:54:12.672Z,929.08
2019-04-07T00:54:26.884Z,929.1
2019-04-07T00:54:40.235Z,929.1
2019-04-07T00:54:54.600Z,929.08
2019-04-07T00:55:08.878Z,929.13
2019-04-07T00:55:22.141Z,929.12
2019-04-07T00:55:36.162Z,929.11
2019-04-07T00:55:49.738Z,929.12
2019-04-07T00:56:03.985Z,929.11
2019-04-07T00:56:17.291Z,929.15
2019-04-07T00:56:31.228Z,929.15
2019-04-07T00:56:45.506Z,929.11
2019-04-07T00:57:00.970Z,929.15
2019-04-07T00:57:16.384Z,929.17
2019-04-07T00:57:31.673Z,929.18
2019-04-07T00:57:46.032Z,929.17
2019-04-07T00:57:59.492Z,929.15
2019-04-07T00:58:13.739Z,929.16
2019-04-07T00:58:26.913Z,929.17
2019-04-07T00:58:40.980Z,929.16
2019-04-07T00:58:54.588Z,929.15
2019-04-07T00:59:08.829Z,929.17
2019-04-07T00:59:22.447Z,929.2
2019-04-07T00:59:36.283Z,929.21
2019-04-07T00:59:50.570Z,929.22
2019-04-07T01:00:05.865Z,929.25
2019-04-07T01:00:21.937Z,929.2
2019-04-07T01:00:35.720Z,929.22
2019-04-07T01:00:50.468Z,929.21
2019-04-07T01:01:03.393Z,929.24
2019-04-07T01:01:16.454Z,929.22
2019-04-07T01:01:30.599Z,929.22
2019-04-07T01:01:44.874Z,929.22
2019-04-07T01:01:59.330Z,929.22
2019-04-07T01:02:13.387Z,929.22
2019-04-07T01:02:27.626Z,929.27
2019-04-07T01:02:42.927Z,929.22
2019-04-07T01:02:58.132Z,929.23
2019-04-07T01:03:13.671Z,929.22
2019-04-07T01:03:29.086Z,929.27
2019-04-07T01:03:43.455Z,929.25
2019-04-07T01:03:56.879Z,929.26
2019-04-07T01:04:11.127Z,929.27
2019-04-07T01:04:24.285Z,929.28
2019-04-07T01:04:38.391Z,929.26
2019-04-07T01:04:52.002Z,929.26
2019-04-07T01:05:06.053Z,929.27
2019-04-07T01:05:20.518Z,929.23
2019-04-07T01:05:49.012Z,929.25
2019-04-07T01:06:03.417Z,929.24
2019-04-07T01:06:17.632Z,929.26
2019-04-07T01:06:31.925Z,929.29
2019-04-07T01:06:46.220Z,929.27
2019-04-07T01:07:00.274Z,929.29
2019-04-07T01:07:14.479Z,929.29
2019-04-07T01:07:29.976Z,929.28
2019-04-07T01:07:45.197Z,929.3
2019-04-07T01:07:59.578Z,929.26
2019-04-07T01:08:12.809Z,929.29
2019-04-07T01:08:25.984Z,929.25
2019-04-07T01:08:40.124Z,929.27
2019-04-07T01:08:53.722Z,929.25
2019-04-07T01:09:08.083Z,929.26
2019-04-07T01:09:22.257Z,929.22
2019-04-07T01:09:36.576Z,929.23
2019-04-07T01:09:50.717Z,929.27
2019-04-07T01:10:05.021Z,929.23
2019-04-07T01:10:20.503Z,929.25
2019-04-07T01:10:34.729Z,929.22
2019-04-07T01:10:49.137Z,929.26
2019-04-07T01:11:03.525Z,929.24
2019-04-07T01:11:16.748Z,929.27
2019-04-07T01:11:30.733Z,929.27
2019-04-07T01:11:44.404Z,929.27
2019-04-07T01:11:58.630Z,929.24
2019-04-07T01:12:12.005Z,929.24
2019-04-07T01:12:25.889Z,929.24
2019-04-07T01:12:40.024Z,929.24
2019-04-07T01:12:55.559Z,929.24
2019-04-07T01:13:10.618Z,929.24
2019-04-07T01:13:26.256Z,929.25
2019-04-07T01:13:41.572Z,929.27
2019-04-07T01:13:55.962Z,929.27
2019-04-07T01:14:09.368Z,929.26
2019-04-07T01:14:23.640Z,929.25
2019-04-07T01:14:36.803Z,929.24
2019-04-07T01:14:50.685Z,929.24
2019-04-07T01:15:04.423Z,929.26
2019-04-07T01:15:18.696Z,929.27
2019-04-07T01:15:32.214Z,929.23
2019-04-07T01:15:45.999Z,929.29
2019-04-07T01:16:00.209Z,929.26
2019-04-07T01:16:13.179Z,929.28
2019-04-07T01:16:27.413Z,929.28
2019-04-07T01:16:40.715Z,929.3
2019-04-07T01:16:56.172Z,929.29
2019-04-07T01:17:09.901Z,929.33
2019-04-07T01:17:23.684Z,929.3
2019-04-07T01:17:38.037Z,929.32
2019-04-07T01:17:51.573Z,929.3
2019-04-07T01:18:05.400Z,929.31
2019-04-07T01:18:19.582Z,929.33
2019-04-07T01:18:35.547Z,929.32
2019-04-07T01:18:49.230Z,929.3
2019-04-07T01:19:02.436Z,929.29
2019-04-07T01:19:16.489Z,929.29
2019-04-07T01:19:30.130Z,929.3
2019-04-07T01:19:44.372Z,929.28
2019-04-07T01:19:57.569Z,929.28
2019-04-07T01:20:11.696Z,929.31
2019-04-07T01:20:25.959Z,929.31
2019-04-07T01:20:39.592Z,929.32
2019-04-07T01:20:54.110Z,929.3
2019-04-07T01:21:08.443Z,929.29
2019-04-07T01:21:21.974Z,929.31
2019-04-07T01:21:35.685Z,929.31
2019-04-07T01:21:49.975Z,929.27
2019-04-07T01:22:05.370Z,929.27
2019-04-07T01:22:19.725Z,929.28
2019-04-07T01:22:33.050Z,929.27
2019-04-07T01:22:47.366Z,929.28
2019-04-07T01:23:00.618Z,929.25
2019-04-07T01:23:14.695Z,929.26
2019-04-07T01:23:28.278Z,929.26
2019-04-07T01:23:42.576Z,929.25
2019-04-07T01:23:56.731Z,929.29
2019-04-07T01:24:11.261Z,929.24
2019-04-07T01:24:25.240Z,929.27
2019-04-07T01:24:39.468Z,929.25
2019-04-07T01:24:53.367Z,929.21
2019-04-07T01:25:07.180Z,929.21
2019-04-07T01:25:21.498Z,929.19
2019-04-07T01:25:34.683Z,929.22
2019-04-07T01:25:48.609Z,929.24
2019-04-07T01:26:03.188Z,929.21
2019-04-07T01:26:17.377Z,929.21
2019-04-07T01:26:30.951Z,929.18
2019-04-07T01:26:44.734Z,929.17
2019-04-07T01:26:58.900Z,929.17
2019-04-07T01:27:13.156Z,929.16
2019-04-07T01:27:27.045Z,929.17
2019-04-07T01:27:41.254Z,929.13
2019-04-07T01:27:54.435Z,929.1
2019-04-07T01:28:08.564Z,929.11
2019-04-07T01:28:22.150Z,929.12
2019-04-07T01:28:36.457Z,929.13
2019-04-07T01:28:50.713Z,929.1
2019-04-07T01:29:05.734Z,929.16
2019-04-07T01:29:20.008Z,929.11
2019-04-07T01:29:34.322Z,929.07
2019-04-07T01:29:49.130Z,929.07
2019-04-07T01:30:03.105Z,929.07
2019-04-07T01:30:17.274Z,929.09
2019-04-07T01:30:30.429Z,929.09
2019-04-07T01:30:44.447Z,929.04
2019-04-07T01:30:59.083Z,929.05
2019-04-07T01:31:13.359Z,929.02
2019-04-07T01:31:27.408Z,929.03
2019-04-07T01:31:41.541Z,929.04
2019-04-07T01:31:56.004Z,929.08
2019-04-07T01:32:10.266Z,929.06
2019-04-07T01:32:25.697Z,929.08
2019-04-07T01:32:40.928Z,929.06
2019-04-07T01:32:56.199Z,929.06
2019-04-07T01:33:10.736Z,929.08
2019-04-07T01:33:24.819Z,929.07
2019-04-07T01:33:38.949Z,929.04
2019-04-07T01:33:52.179Z,929.07
2019-04-07T01:34:06.276Z,929.06
2019-04-07T01:34:20.768Z,929.05
2019-04-07T01:34:35.118Z,929.06
2019-04-07T01:34:48.522Z,929.07
2019-04-07T01:35:02.514Z,929.05
2019-04-07T01:35:16.798Z,929.06
2019-04-07T01:35:32.055Z,929.06
2019-04-07T01:35:58.884Z,929.08
2019-04-07T01:36:12.668Z,929.06
2019-04-07T01:36:26.909Z,929.04
2019-04-07T01:36:40.163Z,929.01
2019-04-07T01:36:53.459Z,929.02
2019-04-07T01:37:07.622Z,928.99
2019-04-07T01:37:21.011Z,929.02
2019-04-07T01:37:35.283Z,929.02
2019-04-07T01:37:49.374Z,929.02
2019-04-07T01:38:03.889Z,928.99
2019-04-07T01:38:17.955Z,929.02
2019-04-07T01:38:32.121Z,929
2019-04-07T01:38:47.458Z,928.99
2019-04-07T01:39:02.945Z,928.97
2019-04-07T01:39:17.236Z,928.95
2019-04-07T01:39:30.707Z,928.96
2019-04-07T01:39:44.946Z,928.97
2019-04-07T01:39:58.092Z,928.98
2019-04-07T01:40:12.155Z,928.98
2019-04-07T01:40:25.740Z,928.97
2019-04-07T01:40:40.133Z,928.95
2019-04-07T01:40:54.293Z,928.95
2019-04-07T01:41:08.684Z,928.97
2019-04-07T01:41:22.873Z,928.93
2019-04-07T01:41:37.119Z,928.95
2019-04-07T01:41:51.510Z,928.92
2019-04-07T01:42:05.013Z,928.95
2019-04-07T01:42:19.122Z,928.92
2019-04-07T01:42:33.404Z,928.98
2019-04-07T01:42:47.539Z,928.95
2019-04-07T01:43:01.057Z,928.96
2019-04-07T01:43:15.329Z,928.93
2019-04-07T01:43:29.258Z,928.94
2019-04-07T01:43:43.566Z,928.95
2019-04-07T01:43:57.896Z,928.92
2019-04-07T01:44:11.320Z,928.95
2019-04-07T01:44:25.630Z,928.94
2019-04-07T01:44:38.728Z,928.95
2019-04-07T01:44:52.047Z,928.93
2019-04-07T01:45:06.235Z,928.93
2019-04-07T01:45:20.510Z,928.93
2019-04-07T01:45:34.425Z,928.9
2019-04-07T01:45:48.841Z,928.88
2019-04-07T01:46:03.743Z,928.9
2019-04-07T01:46:17.607Z,928.9
2019-04-07T01:46:31.746Z,928.88
2019-04-07T01:46:45.872Z,928.9
2019-04-07T01:47:00.053Z,928.87
2019-04-07T01:47:15.408Z,928.9
2019-04-07T01:47:29.014Z,928.89
2019-04-07T01:47:43.193Z,928.93
2019-04-07T01:47:56.446Z,928.92
2019-04-07T01:48:10.330Z,928.89
2019-04-07T01:48:24.601Z,928.89
2019-04-07T01:48:38.006Z,928.91
2019-04-07T01:48:51.094Z,928.89
2019-04-07T01:49:05.112Z,928.87
2019-04-07T01:49:20.629Z,928.91
2019-04-07T01:49:33.931Z,928.84
2019-04-07T01:49:47.679Z,928.92
2019-04-07T01:50:02.146Z,928.87
2019-04-07T01:50:16.327Z,928.91
2019-04-07T01:50:29.671Z,928.92
2019-04-07T01:50:43.970Z,928.9
2019-04-07T01:50:57.179Z,928.88
2019-04-07T01:51:10.375Z,928.89
2019-04-07T01:51:24.626Z,928.9
2019-04-07T01:51:38.811Z,928.87
2019-04-07T01:51:53.009Z,928.88
2019-04-07T01:52:07.183Z,928.87
2019-04-07T01:52:22.691Z,928.86
2019-04-07T01:52:38.153Z,928.86
2019-04-07T01:52:51.896Z,928.88
2019-04-07T01:53:05.854Z,928.86
2019-04-07T01:53:20.203Z,928.9
2019-04-07T01:53:33.421Z,928.89
2019-04-07T01:53:46.826Z,928.86
2019-04-07T01:54:00.931Z,928.91
2019-04-07T01:54:15.221Z,928.86
2019-04-07T01:54:29.623Z,928.89
2019-04-07T01:54:43.684Z,928.85
2019-04-07T01:54:59.020Z,928.88
2019-04-07T01:55:14.624Z,928.85
2019-04-07T01:55:28.859Z,928.86
2019-04-07T01:55:42.198Z,928.89
2019-04-07T01:55:56.482Z,928.87
2019-04-07T01:56:10.791Z,928.88
2019-04-07T01:56:24.780Z,928.89
2019-04-07T01:56:38.428Z,928.87
2019-04-07T01:56:51.751Z,928.88
2019-04-07T01:57:05.784Z,928.86
2019-04-07T01:57:20.109Z,928.88
2019-04-07T01:57:35.446Z,928.89
2019-04-07T01:57:50.622Z,928.85
2019-04-07T01:58:06.161Z,928.9
2019-04-07T01:58:21.694Z,928.88
2019-04-07T01:58:37.020Z,928.85
2019-04-07T01:58:52.420Z,928.89
2019-04-07T01:59:06.682Z,928.87
2019-04-07T01:59:23.293Z,928.88
2019-04-07T01:59:37.692Z,928.9
2019-04-07T01:59:51.964Z,928.91
2019-04-07T02:00:06.217Z,928.9
2019-04-07T02:00:20.268Z,928.89
2019-04-07T02:00:33.830Z,928.93
2019-04-07T02:00:48.336Z,928.91
2019-04-07T02:01:02.006Z,928.91
2019-04-07T02:01:17.360Z,928.92
2019-04-07T02:01:32.686Z,928.93
2019-04-07T02:01:48.080Z,928.93
2019-04-07T02:02:02.461Z,928.95
2019-04-07T02:02:17.466Z,928.94
2019-04-07T02:02:31.086Z,928.95
2019-04-07T02:02:44.462Z,928.97
2019-04-07T02:02:58.573Z,928.97
2019-04-07T02:03:12.191Z,928.93
2019-04-07T02:03:26.552Z,928.97
2019-04-07T02:03:39.931Z,928.94
2019-04-07T02:03:53.885Z,928.94
2019-04-07T02:04:08.131Z,928.95
2019-04-07T02:04:23.659Z,928.93
2019-04-07T02:04:37.956Z,928.95
2019-04-07T02:04:52.868Z,928.9
2019-04-07T02:05:06.755Z,928.92
2019-04-07T02:05:20.975Z,928.92
2019-04-07T02:05:34.219Z,928.91
2019-04-07T02:06:02.592Z,928.89
2019-04-07T02:06:17.822Z,928.85
2019-04-07T02:06:32.160Z,928.89
2019-04-07T02:06:45.366Z,928.86
2019-04-07T02:06:59.482Z,928.87
2019-04-07T02:07:13.047Z,928.86
2019-04-07T02:07:25.678Z,928.88
2019-04-07T02:07:40.153Z,928.85
2019-04-07T02:07:55.394Z,928.85
2019-04-07T02:08:10.868Z,928.85
2019-04-07T02:08:25.258Z,928.83
2019-04-07T02:08:40.233Z,928.84
2019-04-07T02:08:53.992Z,928.82
2019-04-07T02:09:08.260Z,928.82
2019-04-07T02:09:21.473Z,928.84
2019-04-07T02:09:35.722Z,928.81
2019-04-07T02:09:49.211Z,928.81
2019-04-07T02:10:04.332Z,928.84
2019-04-07T02:10:18.608Z,928.81
2019-04-07T02:10:33.044Z,928.83
2019-04-07T02:10:47.121Z,928.82
2019-04-07T02:11:01.353Z,928.82
2019-04-07T02:11:16.781Z,928.78
2019-04-07T02:11:30.866Z,928.79
2019-04-07T02:11:45.218Z,928.81
2019-04-07T02:11:58.375Z,928.8
2019-04-07T02:12:12.599Z,928.83
2019-04-07T02:12:26.960Z,928.81
2019-04-07T02:12:41.254Z,928.81
2019-04-07T02:12:55.621Z,928.8
2019-04-07T02:13:09.880Z,928.84
2019-04-07T02:13:24.006Z,928.83
2019-04-07T02:13:38.203Z,928.8
2019-04-07T02:13:53.274Z,928.87
2019-04-07T02:14:07.089Z,928.83
2019-04-07T02:14:21.371Z,928.84
2019-04-07T02:14:34.545Z,928.83
2019-04-07T02:14:48.535Z,928.86
2019-04-07T02:15:02.377Z,928.82
2019-04-07T02:15:16.172Z,928.84
2019-04-07T02:15:30.622Z,928.86
2019-04-07T02:15:44.809Z,928.84
2019-04-07T02:15:59.133Z,928.85
2019-04-07T02:16:14.477Z,928.84
2019-04-07T02:16:29.974Z,928.86
2019-04-07T02:16:44.349Z,928.85
2019-04-07T02:16:59.326Z,928.87
2019-04-07T02:17:13.133Z,928.87
2019-04-07T02:17:28.507Z,928.86
2019-04-07T02:17:42.808Z,928.93
2019-04-07T02:17:55.967Z,928.86
2019-04-07T02:18:10.101Z,928.86
2019-04-07T02:18:24.694Z,928.9
2019-04-07T02:18:38.940Z,928.88
2019-04-07T02:18:53.264Z,928.89
2019-04-07T02:19:07.309Z,928.87
2019-04-07T02:19:21.637Z,928.85
2019-04-07T02:19:35.926Z,928.85
2019-04-07T02:19:51.264Z,928.83
2019-04-07T02:20:06.755Z,928.83
2019-04-07T02:20:22.117Z,928.81
2019-04-07T02:20:36.468Z,928.85
2019-04-07T02:20:49.969Z,928.84
2019-04-07T02:21:05.133Z,928.83
2019-04-07T02:21:19.638Z,928.84
2019-04-07T02:21:33.819Z,928.83
2019-04-07T02:21:48.140Z,928.82
2019-04-07T02:22:02.395Z,928.83
2019-04-07T02:22:15.913Z,928.81
2019-04-07T02:22:30.039Z,928.83
2019-04-07T02:22:44.401Z,928.82
2019-04-07T02:22:58.456Z,928.85
2019-04-07T02:23:12.817Z,928.86
2019-04-07T02:23:28.194Z,928.85
2019-04-07T02:23:43.698Z,928.85
2019-04-07T02:23:59.066Z,928.81
2019-04-07T02:24:14.468Z,928.81
2019-04-07T02:24:29.939Z,928.81
2019-04-07T02:24:45.324Z,928.81
2019-04-07T02:25:00.914Z,928.85
2019-04-07T02:25:16.106Z,928.86
2019-04-07T02:25:31.682Z,928.82
2019-04-07T02:25:45.400Z,928.82
2019-04-07T02:25:59.341Z,928.84
2019-04-07T02:26:13.641Z,928.86
2019-04-07T02:26:26.843Z,928.88
2019-04-07T02:26:40.906Z,928.85
2019-04-07T02:26:54.484Z,928.87
2019-04-07T02:27:08.717Z,928.87
2019-04-07T02:27:22.074Z,928.85
2019-04-07T02:27:36.082Z,928.87
2019-04-07T02:27:50.137Z,928.88
2019-04-07T02:28:04.926Z,928.88
2019-04-07T02:28:18.819Z,928.88
2019-04-07T02:28:33.032Z,928.91
2019-04-07T02:28:46.248Z,928.91
2019-04-07T02:29:00.292Z,928.89
2019-04-07T02:29:14.041Z,928.91
2019-04-07T02:29:28.184Z,928.89
2019-04-07T02:29:42.434Z,928.91
2019-04-07T02:29:56.769Z,928.91
2019-04-07T02:30:14.464Z,928.9
2019-04-07T02:30:30.924Z,928.91
2019-04-07T02:30:45.964Z,928.93
2019-04-07T02:31:00.629Z,928.9
2019-04-07T02:31:15.310Z,928.92
2019-04-07T02:31:31.876Z,928.91
2019-04-07T02:31:47.284Z,928.91
2019-04-07T02:32:01.503Z,928.91
2019-04-07T02:32:18.524Z,928.94
2019-04-07T02:32:33.431Z,928.93
2019-04-07T02:32:48.314Z,928.93
2019-04-07T02:33:03.364Z,928.92
2019-04-07T02:33:19.266Z,928.96
2019-04-07T02:33:34.796Z,928.98
2019-04-07T02:33:48.123Z,928.96
2019-04-07T02:34:01.613Z,928.96
2019-04-07T02:34:17.512Z,928.93
2019-04-07T02:34:32.064Z,928.95
2019-04-07T02:34:48.926Z,929
2019-04-07T02:35:03.644Z,928.94
2019-04-07T02:35:17.834Z,928.94
2019-04-07T02:35:33.134Z,928.93
2019-04-07T02:35:47.914Z,928.93
2019-04-07T02:36:30.615Z,928.9
2019-04-07T02:36:44.940Z,928.93
2019-04-07T02:37:00.110Z,928.87
2019-04-07T02:37:14.983Z,928.91
2019-04-07T02:37:28.983Z,928.9
2019-04-07T02:37:44.060Z,928.93
2019-04-07T02:37:59.095Z,928.92
2019-04-07T02:38:19.205Z,928.91
2019-04-07T02:38:34.640Z,928.87
2019-04-07T02:38:48.210Z,928.89
2019-04-07T02:39:04.580Z,928.91
2019-04-07T02:39:19.569Z,928.91
2019-04-07T02:39:33.353Z,928.93
2019-04-07T02:39:48.648Z,928.88
2019-04-07T02:40:04.936Z,928.89
2019-04-07T02:40:21.377Z,928.87
2019-04-07T02:40:35.635Z,928.84
2019-04-07T02:40:51.392Z,928.86
2019-04-07T02:41:10.270Z,928.88
2019-04-07T02:41:24.124Z,928.89
2019-04-07T02:41:40.096Z,928.85
2019-04-07T02:41:54.858Z,928.9
2019-04-07T02:42:10.861Z,928.92
2019-04-07T02:42:27.695Z,928.91
2019-04-07T02:42:42.656Z,928.91
2019-04-07T02:42:57.521Z,928.91
2019-04-07T02:43:13.448Z,928.91
2019-04-07T02:43:28.587Z,928.86
2019-04-07T02:43:44.290Z,928.89
2019-04-07T02:44:01.481Z,928.9
2019-04-07T02:44:17.783Z,928.88
2019-04-07T02:44:33.603Z,928.86
2019-04-07T02:44:48.253Z,928.89
2019-04-07T02:45:02.396Z,928.88
2019-04-07T02:45:17.245Z,928.87
2019-04-07T02:45:32.194Z,928.82
2019-04-07T02:45:46.343Z,928.83
2019-04-07T02:46:01.034Z,928.85
2019-04-07T02:46:16.918Z,928.83
2019-04-07T02:46:33.214Z,928.83
2019-04-07T02:46:49.097Z,928.86
2019-04-07T02:47:04.052Z,928.82
2019-04-07T02:47:18.139Z,928.83
2019-04-07T02:47:32.485Z,928.78
2019-04-07T02:47:47.904Z,928.83
2019-04-07T02:48:02.885Z,928.81
2019-04-07T02:48:19.969Z,928.84
2019-04-07T02:48:33.799Z,928.79
2019-04-07T02:48:48.814Z,928.81
2019-04-07T02:49:03.795Z,928.77
2019-04-07T02:49:19.942Z,928.78
2019-04-07T02:49:34.516Z,928.78
2019-04-07T02:49:48.714Z,928.77
2019-04-07T02:50:04.520Z,928.77
2019-04-07T02:50:18.838Z,928.76
2019-04-07T02:50:33.361Z,928.77
2019-04-07T02:50:47.701Z,928.77
2019-04-07T02:51:03.212Z,928.79
2019-04-07T02:51:16.640Z,928.74
2019-04-07T02:51:31.925Z,928.75
2019-04-07T02:51:47.733Z,928.77
2019-04-07T02:52:01.684Z,928.76
2019-04-07T02:52:16.588Z,928.75
2019-04-07T02:52:33.187Z,928.72
2019-04-07T02:52:49.142Z,928.74
2019-04-07T02:53:03.981Z,928.76
2019-04-07T02:53:19.421Z,928.75
2019-04-07T02:53:34.818Z,928.69
2019-04-07T02:53:48.224Z,928.72
2019-04-07T02:54:03.624Z,928.74
2019-04-07T02:54:19.391Z,928.72
2019-04-07T02:54:33.347Z,928.7
2019-04-07T02:54:48.396Z,928.71
2019-04-07T02:55:02.617Z,928.7
2019-04-07T02:55:17.103Z,928.74
2019-04-07T02:55:32.119Z,928.71
2019-04-07T02:55:47.067Z,928.75
2019-04-07T02:56:01.954Z,928.75
2019-04-07T02:56:16.511Z,928.72
2019-04-07T02:56:30.438Z,928.69
2019-04-07T02:56:46.141Z,928.71
2019-04-07T02:57:00.445Z,928.7
2019-04-07T02:57:15.292Z,928.69
2019-04-07T02:57:31.808Z,928.74
2019-04-07T02:57:47.381Z,928.71
2019-04-07T02:58:02.924Z,928.7
2019-04-07T02:58:18.927Z,928.73
2019-04-07T02:58:33.919Z,928.72
2019-04-07T02:58:49.751Z,928.74
2019-04-07T02:59:03.521Z,928.73
2019-04-07T02:59:18.553Z,928.74
2019-04-07T02:59:35.406Z,928.71
2019-04-07T02:59:54.493Z,928.71
2019-04-07T03:00:08.859Z,928.74
2019-04-07T03:00:25.740Z,928.74
2019-04-07T03:00:41.361Z,928.75
2019-04-07T03:00:55.223Z,928.72
2019-04-07T03:01:11.511Z,928.75